Main page
METAR-TAF:

METAR-TAF

Airports :

Valence-Chabeuil Airport

Valence, France

latitude: 44-54-58N, longitude: 4-58-06E, elevation: 160 m

Current weather observation

The report was made 10 minutes ago, at 10:00 UTC
Wind 15 kt from the North
Temperature 21°C
Humidity 46%
Pressure 1022 hPa
Visibility 10 km or more
Few clouds at a height of 300 ft

METAR: LFLU 231000Z AUTO 36015KT 9999 FEW003 21/09 Q1022

Time: 12:10 (10:10 UTC)


TAF: missing

Weather observations and forecasts of more than 4000 airports (METAR and TAF reports).

The available stations are represented by yellow and red dots on the map.

Hover mouse over dot to see the name of the station.

Then click to see weather observations and forecasts.

To change the map : click on the green buttons with a black cross to zoom in, on the green button with a dash to zoom out, or on the green arrows for adjacent maps.


METAR-TAF: